sensor_id;sensor_type;location;lat;lon;timestamp;pressure;altitude;pressure_sealevel;temperature;humidity
66273;BME280;58450;52.150;4.466;2023-02-18T00:01:35;102191.00;;;10.82;100.00
66273;BME280;58450;52.150;4.466;2023-02-18T00:04:03;102168.81;;;10.88;100.00
66273;BME280;58450;52.150;4.466;2023-02-18T00:06:32;102163.88;;;11.02;100.00
66273;BME280;58450;52.150;4.466;2023-02-18T00:09:03;102177.59;;;10.90;100.00
66273;BME280;58450;52.150;4.466;2023-02-18T00:11:34;102163.91;;;10.84;100.00
66273;BME280;58450;52.150;4.466;2023-02-18T00:14:06;102160.44;;;10.91;100.00
66273;BME280;58450;52.150;4.466;2023-02-18T00:16:34;102167.03;;;10.97;100.00
66273;BME280;58450;52.150;4.466;2023-02-18T00:19:04;102154.34;;;10.89;100.00
66273;BME280;58450;52.150;4.466;2023-02-18T00:21:34;102159.44;;;10.92;100.00
66273;BME280;58450;52.150;4.466;2023-02-18T00:24:03;102158.44;;;10.93;100.00
66273;BME280;58450;52.150;4.466;2023-02-18T00:26:31;102157.75;;;10.91;100.00
66273;BME280;58450;52.150;4.466;2023-02-18T00:28:59;102150.06;;;11.05;100.00
66273;BME280;58450;52.150;4.466;2023-02-18T00:31:28;102154.66;;;10.86;100.00
66273;BME280;58450;52.150;4.466;2023-02-18T00:33:58;102159.81;;;10.79;100.00
66273;BME280;58450;52.150;4.466;2023-02-18T00:36:26;102148.59;;;10.84;100.00
66273;BME280;58450;52.150;4.466;2023-02-18T00:38:56;102149.41;;;11.03;100.00
66273;BME280;58450;52.150;4.466;2023-02-18T00:41:27;102160.25;;;10.93;100.00
66273;BME280;58450;52.150;4.466;2023-02-18T00:43:55;102154.09;;;11.01;100.00
66273;BME280;58450;52.150;4.466;2023-02-18T00:46:23;102150.28;;;10.67;100.00
66273;BME280;58450;52.150;4.466;2023-02-18T00:48:52;102140.94;;;10.98;100.00
66273;BME280;58450;52.150;4.466;2023-02-18T00:51:20;102144.69;;;11.05;100.00
66273;BME280;58450;52.150;4.466;2023-02-18T00:53:50;102137.66;;;11.12;100.00
66273;BME280;58450;52.150;4.466;2023-02-18T00:56:18;102140.84;;;11.07;100.00
66273;BME280;58450;52.150;4.466;2023-02-18T00:58:48;102140.97;;;11.06;100.00
66273;BME280;58450;52.150;4.466;2023-02-18T01:01:17;102136.59;;;11.05;100.00
66273;BME280;58450;52.150;4.466;2023-02-18T01:03:45;102140.41;;;11.20;100.00
66273;BME280;58450;52.150;4.466;2023-02-18T01:06:13;102133.69;;;11.24;100.00
66273;BME280;58450;52.150;4.466;2023-02-18T01:08:41;102121.44;;;11.30;100.00
66273;BME280;58450;52.150;4.466;2023-02-18T01:11:11;102120.44;;;11.05;100.00
66273;BME280;58450;52.150;4.466;2023-02-18T01:13:39;102115.72;;;10.99;100.00
66273;BME280;58450;52.150;4.466;2023-02-18T01:16:09;102112.66;;;10.93;100.00
66273;BME280;58450;52.150;4.466;2023-02-18T01:18:37;102115.28;;;10.85;100.00
66273;BME280;58450;52.150;4.466;2023-02-18T01:21:06;102118.41;;;10.99;100.00
66273;BME280;58450;52.150;4.466;2023-02-18T01:23:35;102110.31;;;10.99;100.00
66273;BME280;58450;52.150;4.466;2023-02-18T01:26:03;102089.97;;;11.04;100.00
66273;BME280;58450;52.150;4.466;2023-02-18T01:28:31;102108.44;;;11.26;100.00
66273;BME280;58450;52.150;4.466;2023-02-18T01:31:03;102098.28;;;11.19;100.00
66273;BME280;58450;52.150;4.466;2023-02-18T01:33:34;102113.38;;;11.04;100.00
66273;BME280;58450;52.150;4.466;2023-02-18T01:36:03;102109.75;;;11.21;100.00
66273;BME280;58450;52.150;4.466;2023-02-18T01:38:31;102102.03;;;11.27;100.00
66273;BME280;58450;52.150;4.466;2023-02-18T01:40:59;102101.84;;;11.20;100.00
66273;BME280;58450;52.150;4.466;2023-02-18T01:43:26;102100.88;;;11.29;100.00
66273;BME280;58450;52.150;4.466;2023-02-18T01:46:13;102076.91;;;11.61;100.00
66273;BME280;58450;52.150;4.466;2023-02-18T01:48:46;102108.00;;;11.38;100.00
66273;BME280;58450;52.150;4.466;2023-02-18T01:51:19;102077.03;;;11.51;100.00
66273;BME280;58450;52.150;4.466;2023-02-18T01:53:53;102080.84;;;11.32;100.00
66273;BME280;58450;52.150;4.466;2023-02-18T01:56:27;102090.56;;;11.24;100.00
66273;BME280;58450;52.150;4.466;2023-02-18T01:59:02;102078.03;;;10.81;100.00
66273;BME280;58450;52.150;4.466;2023-02-18T02:01:33;102074.34;;;11.51;100.00
66273;BME280;58450;52.150;4.466;2023-02-18T02:04:03;102058.69;;;11.55;100.00
66273;BME280;58450;52.150;4.466;2023-02-18T02:06:31;102054.16;;;11.63;100.00
66273;BME280;58450;52.150;4.466;2023-02-18T02:09:01;102052.28;;;11.47;100.00
66273;BME280;58450;52.150;4.466;2023-02-18T02:15:05;102038.63;;;11.41;100.00
66273;BME280;58450;52.150;4.466;2023-02-18T02:17:50;102034.56;;;11.36;100.00
66273;BME280;58450;52.150;4.466;2023-02-18T02:24:04;102016.72;;;11.44;100.00
66273;BME280;58450;52.150;4.466;2023-02-18T02:27:02;102014.50;;;11.39;100.00
66273;BME280;58450;52.150;4.466;2023-02-18T02:30:05;101993.66;;;11.49;100.00
66273;BME280;58450;52.150;4.466;2023-02-18T02:33:33;102002.22;;;11.53;100.00
66273;BME280;58450;52.150;4.466;2023-02-18T02:36:35;101971.28;;;11.74;100.00
66273;BME280;58450;52.150;4.466;2023-02-18T02:39:15;101968.22;;;11.60;100.00
66273;BME280;58450;52.150;4.466;2023-02-18T02:41:54;101970.88;;;11.52;100.00
66273;BME280;58450;52.150;4.466;2023-02-18T02:44:37;101957.44;;;11.60;100.00
66273;BME280;58450;52.150;4.466;2023-02-18T02:47:16;101965.00;;;11.48;100.00
66273;BME280;58450;52.150;4.466;2023-02-18T02:49:57;101951.88;;;11.62;100.00
66273;BME280;58450;52.150;4.466;2023-02-18T02:52:31;101973.13;;;11.73;100.00
66273;BME280;58450;52.150;4.466;2023-02-18T02:55:05;101973.94;;;11.57;100.00
66273;BME280;58450;52.150;4.466;2023-02-18T02:57:44;101954.41;;;11.72;100.00
66273;BME280;58450;52.150;4.466;2023-02-18T03:00:17;101949.34;;;11.60;100.00
66273;BME280;58450;52.150;4.466;2023-02-18T03:03:00;101945.09;;;11.41;100.00
66273;BME280;58450;52.150;4.466;2023-02-18T03:05:54;101962.44;;;11.30;100.00
66273;BME280;58450;52.150;4.466;2023-02-18T03:08:44;101947.41;;;11.19;100.00
66273;BME280;58450;52.150;4.466;2023-02-18T03:11:24;101937.25;;;11.05;100.00
66273;BME280;58450;52.150;4.466;2023-02-18T03:14:04;101912.72;;;11.16;100.00
66273;BME280;58450;52.150;4.466;2023-02-18T03:16:45;101926.81;;;10.93;100.00
66273;BME280;58450;52.150;4.466;2023-02-18T03:19:21;101919.00;;;10.82;100.00
66273;BME280;58450;52.150;4.466;2023-02-18T03:21:57;101915.47;;;10.82;100.00
66273;BME280;58450;52.150;4.466;2023-02-18T03:24:31;101905.66;;;10.72;100.00
66273;BME280;58450;52.150;4.466;2023-02-18T03:27:03;101910.22;;;10.72;100.00
66273;BME280;58450;52.150;4.466;2023-02-18T03:29:34;101919.38;;;10.87;100.00
66273;BME280;58450;52.150;4.466;2023-02-18T03:32:05;101893.09;;;10.81;100.00
66273;BME280;58450;52.150;4.466;2023-02-18T03:34:39;101906.16;;;10.68;100.00
66273;BME280;58450;52.150;4.466;2023-02-18T03:37:11;101898.91;;;10.68;100.00
66273;BME280;58450;52.150;4.466;2023-02-18T03:39:45;101907.19;;;10.75;100.00
66273;BME280;58450;52.150;4.466;2023-02-18T03:42:16;101883.44;;;10.70;100.00
66273;BME280;58450;52.150;4.466;2023-02-18T03:44:44;101897.94;;;10.77;100.00
66273;BME280;58450;52.150;4.466;2023-02-18T03:47:12;101897.84;;;10.96;100.00
66273;BME280;58450;52.150;4.466;2023-02-18T03:49:39;101920.38;;;10.86;100.00
66273;BME280;58450;52.150;4.466;2023-02-18T03:52:07;101893.97;;;10.98;100.00
66273;BME280;58450;52.150;4.466;2023-02-18T03:54:34;101884.41;;;11.12;100.00
66273;BME280;58450;52.150;4.466;2023-02-18T03:57:03;101887.44;;;11.09;100.00
66273;BME280;58450;52.150;4.466;2023-02-18T03:59:31;101910.31;;;11.05;100.00
66273;BME280;58450;52.150;4.466;2023-02-18T04:01:58;101872.28;;;11.08;100.00
66273;BME280;58450;52.150;4.466;2023-02-18T04:04:26;101884.56;;;11.02;100.00
66273;BME280;58450;52.150;4.466;2023-02-18T04:06:54;101881.38;;;11.07;100.00
66273;BME280;58450;52.150;4.466;2023-02-18T04:09:21;101866.09;;;11.32;100.00
66273;BME280;58450;52.150;4.466;2023-02-18T04:11:49;101877.34;;;11.03;100.00
66273;BME280;58450;52.150;4.466;2023-02-18T04:14:18;101863.38;;;11.07;100.00
66273;BME280;58450;52.150;4.466;2023-02-18T04:16:45;101884.91;;;11.07;100.00
66273;BME280;58450;52.150;4.466;2023-02-18T04:19:13;101871.97;;;11.19;100.00
66273;BME280;58450;52.150;4.466;2023-02-18T04:21:40;101870.28;;;11.27;100.00
66273;BME280;58450;52.150;4.466;2023-02-18T04:24:08;101847.41;;;11.39;100.00
66273;BME280;58450;52.150;4.466;2023-02-18T04:26:35;101830.72;;;11.19;100.00
66273;BME280;58450;52.150;4.466;2023-02-18T04:29:03;101864.44;;;11.40;100.00
66273;BME280;58450;52.150;4.466;2023-02-18T04:31:32;101835.25;;;11.27;100.00
66273;BME280;58450;52.150;4.466;2023-02-18T04:33:59;101840.63;;;11.18;100.00
66273;BME280;58450;52.150;4.466;2023-02-18T04:36:27;101830.84;;;11.09;100.00
66273;BME280;58450;52.150;4.466;2023-02-18T04:38:54;101810.16;;;11.09;100.00
66273;BME280;58450;52.150;4.466;2023-02-18T04:41:22;101846.34;;;11.07;100.00
66273;BME280;58450;52.150;4.466;2023-02-18T04:43:49;101833.72;;;10.99;100.00
66273;BME280;58450;52.150;4.466;2023-02-18T04:46:17;101802.56;;;11.05;100.00
66273;BME280;58450;52.150;4.466;2023-02-18T04:48:46;101878.00;;;10.97;100.00
66273;BME280;58450;52.150;4.466;2023-02-18T04:51:13;101804.41;;;10.96;100.00
66273;BME280;58450;52.150;4.466;2023-02-18T04:53:41;101823.63;;;11.09;100.00
66273;BME280;58450;52.150;4.466;2023-02-18T04:56:08;101828.00;;;11.02;100.00
66273;BME280;58450;52.150;4.466;2023-02-18T04:58:36;101831.53;;;11.11;100.00
66273;BME280;58450;52.150;4.466;2023-02-18T05:01:04;101822.97;;;11.07;100.00
66273;BME280;58450;52.150;4.466;2023-02-18T05:03:32;101841.16;;;11.14;100.00
66273;BME280;58450;52.150;4.466;2023-02-18T05:06:01;101815.22;;;11.04;100.00
66273;BME280;58450;52.150;4.466;2023-02-18T05:08:29;101812.84;;;11.01;100.00
66273;BME280;58450;52.150;4.466;2023-02-18T05:10:56;101831.72;;;11.09;100.00
66273;BME280;58450;52.150;4.466;2023-02-18T05:13:24;101817.25;;;11.11;100.00
66273;BME280;58450;52.150;4.466;2023-02-18T05:15:51;101787.28;;;11.38;100.00
66273;BME280;58450;52.150;4.466;2023-02-18T05:18:19;101871.28;;;11.17;100.00
66273;BME280;58450;52.150;4.466;2023-02-18T05:20:47;101783.06;;;11.36;100.00
66273;BME280;58450;52.150;4.466;2023-02-18T05:23:16;101806.97;;;11.14;100.00
66273;BME280;58450;52.150;4.466;2023-02-18T05:25:45;101784.41;;;11.40;100.00
66273;BME280;58450;52.150;4.466;2023-02-18T05:28:12;101793.16;;;11.26;100.00
66273;BME280;58450;52.150;4.466;2023-02-18T05:30:40;101810.00;;;11.36;100.00
66273;BME280;58450;52.150;4.466;2023-02-18T05:33:07;101788.44;;;11.36;100.00
66273;BME280;58450;52.150;4.466;2023-02-18T05:35:35;101802.25;;;11.49;100.00
66273;BME280;58450;52.150;4.466;2023-02-18T05:38:02;101786.75;;;11.35;100.00
66273;BME280;58450;52.150;4.466;2023-02-18T05:40:31;101784.53;;;11.55;100.00
66273;BME280;58450;52.150;4.466;2023-02-18T05:42:58;101781.38;;;11.51;100.00
66273;BME280;58450;52.150;4.466;2023-02-18T05:45:26;101774.63;;;11.39;100.00
66273;BME280;58450;52.150;4.466;2023-02-18T05:47:53;101797.19;;;11.21;100.00
66273;BME280;58450;52.150;4.466;2023-02-18T05:50:21;101771.94;;;11.39;100.00
66273;BME280;58450;52.150;4.466;2023-02-18T05:52:48;101769.75;;;11.18;100.00
66273;BME280;58450;52.150;4.466;2023-02-18T05:55:16;101764.03;;;11.37;100.00
66273;BME280;58450;52.150;4.466;2023-02-18T05:57:45;101776.50;;;11.30;100.00
66273;BME280;58450;52.150;4.466;2023-02-18T06:00:13;101770.94;;;11.23;100.00
66273;BME280;58450;52.150;4.466;2023-02-18T06:02:41;101768.22;;;11.15;100.00
66273;BME280;58450;52.150;4.466;2023-02-18T06:05:09;101814.72;;;11.17;100.00
66273;BME280;58450;52.150;4.466;2023-02-18T06:07:37;101788.09;;;11.22;100.00
66273;BME280;58450;52.150;4.466;2023-02-18T06:10:06;101750.91;;;11.18;100.00
66273;BME280;58450;52.150;4.466;2023-02-18T06:12:34;101790.13;;;11.20;100.00
66273;BME280;58450;52.150;4.466;2023-02-18T06:15:03;101820.09;;;11.01;100.00
66273;BME280;58450;52.150;4.466;2023-02-18T06:17:32;101771.44;;;11.11;100.00
66273;BME280;58450;52.150;4.466;2023-02-18T06:19:59;101756.97;;;11.03;100.00
66273;BME280;58450;52.150;4.466;2023-02-18T06:22:27;101786.19;;;10.73;100.00
66273;BME280;58450;52.150;4.466;2023-02-18T06:24:55;101775.28;;;10.75;100.00
66273;BME280;58450;52.150;4.466;2023-02-18T06:27:22;101785.22;;;10.91;100.00
66273;BME280;58450;52.150;4.466;2023-02-18T06:29:50;101787.91;;;10.83;100.00
66273;BME280;58450;52.150;4.466;2023-02-18T06:32:19;101779.00;;;10.90;100.00
66273;BME280;58450;52.150;4.466;2023-02-18T06:34:46;101783.06;;;10.94;100.00
66273;BME280;58450;52.150;4.466;2023-02-18T06:37:14;101781.53;;;10.92;100.00
66273;BME280;58450;52.150;4.466;2023-02-18T06:39:41;101802.56;;;10.80;100.00
66273;BME280;58450;52.150;4.466;2023-02-18T06:42:09;101799.53;;;10.83;100.00
66273;BME280;58450;52.150;4.466;2023-02-18T06:44:36;101808.59;;;10.74;100.00
66273;BME280;58450;52.150;4.466;2023-02-18T06:47:03;101790.59;;;10.91;100.00
66273;BME280;58450;52.150;4.466;2023-02-18T06:49:33;101856.69;;;10.69;100.00
66273;BME280;58450;52.150;4.466;2023-02-18T06:52:02;101759.09;;;10.67;100.00
66273;BME280;58450;52.150;4.466;2023-02-18T06:54:29;101731.34;;;10.74;100.00
66273;BME280;58450;52.150;4.466;2023-02-18T06:56:57;101814.78;;;10.66;100.00
66273;BME280;58450;52.150;4.466;2023-02-18T06:59:24;101773.94;;;10.79;100.00
66273;BME280;58450;52.150;4.466;2023-02-18T07:01:52;101744.97;;;10.64;100.00
66273;BME280;58450;52.150;4.466;2023-02-18T07:04:19;101792.25;;;10.59;100.00
66273;BME280;58450;52.150;4.466;2023-02-18T07:06:48;101814.97;;;10.64;100.00
66273;BME280;58450;52.150;4.466;2023-02-18T07:09:16;101808.84;;;10.46;100.00
66273;BME280;58450;52.150;4.466;2023-02-18T07:11:43;101749.00;;;10.60;100.00
66273;BME280;58450;52.150;4.466;2023-02-18T07:14:11;101743.25;;;10.47;100.00
66273;BME280;58450;52.150;4.466;2023-02-18T07:16:38;101746.13;;;10.54;100.00
66273;BME280;58450;52.150;4.466;2023-02-18T07:19:06;101753.22;;;10.71;100.00
66273;BME280;58450;52.150;4.466;2023-02-18T07:21:33;101761.09;;;10.56;100.00
66273;BME280;58450;52.150;4.466;2023-02-18T07:24:02;101812.72;;;10.43;100.00
66273;BME280;58450;52.150;4.466;2023-02-18T07:26:30;101729.81;;;10.63;100.00
66273;BME280;58450;52.150;4.466;2023-02-18T07:28:57;101766.09;;;10.43;100.00
66273;BME280;58450;52.150;4.466;2023-02-18T07:31:25;101800.06;;;10.44;100.00
66273;BME280;58450;52.150;4.466;2023-02-18T07:33:52;101739.94;;;10.70;100.00
66273;BME280;58450;52.150;4.466;2023-02-18T07:36:20;101773.16;;;10.44;100.00
66273;BME280;58450;52.150;4.466;2023-02-18T07:38:47;101777.41;;;10.46;100.00
66273;BME280;58450;52.150;4.466;2023-02-18T07:41:19;101786.06;;;10.32;100.00
66273;BME280;58450;52.150;4.466;2023-02-18T07:43:49;101801.81;;;10.18;100.00
66273;BME280;58450;52.150;4.466;2023-02-18T07:46:16;101761.13;;;10.22;100.00
66273;BME280;58450;52.150;4.466;2023-02-18T07:48:44;101755.13;;;9.93;100.00
66273;BME280;58450;52.150;4.466;2023-02-18T07:51:12;101795.50;;;10.01;100.00
66273;BME280;58450;52.150;4.466;2023-02-18T07:53:40;101770.19;;;10.20;100.00
66273;BME280;58450;52.150;4.466;2023-02-18T07:56:09;101758.03;;;10.08;100.00
66273;BME280;58450;52.150;4.466;2023-02-18T07:58:38;101772.03;;;10.20;100.00
66273;BME280;58450;52.150;4.466;2023-02-18T08:01:08;101755.94;;;10.28;100.00
66273;BME280;58450;52.150;4.466;2023-02-18T08:03:37;101780.09;;;10.20;100.00
66273;BME280;58450;52.150;4.466;2023-02-18T08:06:06;101758.03;;;10.08;100.00
66273;BME280;58450;52.150;4.466;2023-02-18T08:08:34;101777.19;;;10.05;100.00
66273;BME280;58450;52.150;4.466;2023-02-18T08:11:02;101786.03;;;10.24;100.00
66273;BME280;58450;52.150;4.466;2023-02-18T08:13:32;101763.97;;;10.12;100.00
66273;BME280;58450;52.150;4.466;2023-02-18T08:16:02;101796.38;;;10.10;100.00
66273;BME280;58450;52.150;4.466;2023-02-18T08:18:29;101751.50;;;10.11;100.00
66273;BME280;58450;52.150;4.466;2023-02-18T08:20:57;101763.03;;;10.38;100.00
66273;BME280;58450;52.150;4.466;2023-02-18T08:23:24;101770.41;;;10.35;100.00
66273;BME280;58450;52.150;4.466;2023-02-18T08:25:53;101751.03;;;10.24;100.00
66273;BME280;58450;52.150;4.466;2023-02-18T08:28:22;101772.38;;;10.25;100.00
66273;BME280;58450;52.150;4.466;2023-02-18T08:30:52;101756.38;;;10.50;100.00
66273;BME280;58450;52.150;4.466;2023-02-18T08:33:22;101748.44;;;10.40;100.00
66273;BME280;58450;52.150;4.466;2023-02-18T08:35:51;101762.16;;;10.29;100.00
66273;BME280;58450;52.150;4.466;2023-02-18T08:38:22;101752.25;;;10.38;100.00
66273;BME280;58450;52.150;4.466;2023-02-18T08:40:50;101763.63;;;10.15;100.00
66273;BME280;58450;52.150;4.466;2023-02-18T08:43:27;101766.44;;;10.40;100.00
66273;BME280;58450;52.150;4.466;2023-02-18T08:45:56;101791.31;;;10.42;100.00
66273;BME280;58450;52.150;4.466;2023-02-18T08:48:25;101823.53;;;10.33;100.00
66273;BME280;58450;52.150;4.466;2023-02-18T08:50:55;101771.28;;;10.36;100.00
66273;BME280;58450;52.150;4.466;2023-02-18T08:53:23;101806.31;;;10.18;100.00
66273;BME280;58450;52.150;4.466;2023-02-18T08:55:50;101791.78;;;10.37;100.00
66273;BME280;58450;52.150;4.466;2023-02-18T08:58:18;101791.78;;;10.37;100.00
66273;BME280;58450;52.150;4.466;2023-02-18T09:00:45;101834.94;;;10.27;100.00
66273;BME280;58450;52.150;4.466;2023-02-18T09:03:14;101781.16;;;10.27;100.00
66273;BME280;58450;52.150;4.466;2023-02-18T09:05:43;101803.03;;;10.32;100.00
66273;BME280;58450;52.150;4.466;2023-02-18T09:08:10;101803.19;;;10.31;100.00
66273;BME280;58450;52.150;4.466;2023-02-18T09:10:38;101813.47;;;10.35;100.00
66273;BME280;58450;52.150;4.466;2023-02-18T09:13:05;101831.97;;;10.39;100.00
66273;BME280;58450;52.150;4.466;2023-02-18T09:15:33;101804.22;;;10.30;100.00
66273;BME280;58450;52.150;4.466;2023-02-18T09:18:00;101838.53;;;10.36;100.00
66273;BME280;58450;52.150;4.466;2023-02-18T09:20:28;101797.31;;;10.35;100.00
66273;BME280;58450;52.150;4.466;2023-02-18T09:22:57;101882.81;;;10.42;100.00
66273;BME280;58450;52.150;4.466;2023-02-18T09:25:25;101845.81;;;10.44;100.00
66273;BME280;58450;52.150;4.466;2023-02-18T09:27:53;101849.91;;;10.22;100.00
66273;BME280;58450;52.150;4.466;2023-02-18T09:30:20;101796.41;;;10.18;100.00
66273;BME280;58450;52.150;4.466;2023-02-18T09:32:48;101846.00;;;10.42;100.00
66273;BME280;58450;52.150;4.466;2023-02-18T09:35:15;101816.59;;;10.49;100.00
66273;BME280;58450;52.150;4.466;2023-02-18T09:37:43;101841.81;;;10.22;100.00
66273;BME280;58450;52.150;4.466;2023-02-18T09:40:23;101846.06;;;10.32;100.00
66273;BME280;58450;52.150;4.466;2023-02-18T09:42:54;101843.00;;;10.45;100.00
66273;BME280;58450;52.150;4.466;2023-02-18T09:45:24;101825.56;;;10.31;100.00
66273;BME280;58450;52.150;4.466;2023-02-18T09:47:52;101818.31;;;10.58;100.00
66273;BME280;58450;52.150;4.466;2023-02-18T09:50:22;101846.84;;;10.43;100.00
66273;BME280;58450;52.150;4.466;2023-02-18T09:52:52;101853.47;;;10.30;100.00
66273;BME280;58450;52.150;4.466;2023-02-18T09:55:24;101849.41;;;10.26;100.00
66273;BME280;58450;52.150;4.466;2023-02-18T09:57:58;101824.03;;;10.29;100.00
66273;BME280;58450;52.150;4.466;2023-02-18T10:00:32;101854.31;;;10.31;100.00
66273;BME280;58450;52.150;4.466;2023-02-18T10:03:04;101843.66;;;10.21;100.00
66273;BME280;58450;52.150;4.466;2023-02-18T10:05:40;101846.84;;;10.16;100.00
66273;BME280;58450;52.150;4.466;2023-02-18T10:08:19;101856.19;;;10.39;100.00
66273;BME280;58450;52.150;4.466;2023-02-18T10:10:52;101869.25;;;10.52;100.00
66273;BME280;58450;52.150;4.466;2023-02-18T10:13:22;101916.16;;;10.49;100.00
66273;BME280;58450;52.150;4.466;2023-02-18T10:15:51;101855.69;;;10.35;100.00
66273;BME280;58450;52.150;4.466;2023-02-18T10:18:26;101880.91;;;10.60;100.00
66273;BME280;58450;52.150;4.466;2023-02-18T10:21:05;101877.66;;;10.48;100.00
66273;BME280;58450;52.150;4.466;2023-02-18T10:23:39;101869.72;;;10.47;100.00
66273;BME280;58450;52.150;4.466;2023-02-18T10:26:14;101861.28;;;10.42;100.00
66273;BME280;58450;52.150;4.466;2023-02-18T10:28:44;101887.72;;;10.81;100.00
66273;BME280;58450;52.150;4.466;2023-02-18T10:31:16;101865.50;;;10.87;100.00
66273;BME280;58450;52.150;4.466;2023-02-18T10:33:52;101881.09;;;10.75;100.00
66273;BME280;58450;52.150;4.466;2023-02-18T10:36:31;101857.06;;;10.74;100.00
66273;BME280;58450;52.150;4.466;2023-02-18T10:39:17;101922.56;;;10.91;100.00
66273;BME280;58450;52.150;4.466;2023-02-18T10:42:10;101877.78;;;10.90;100.00
66273;BME280;58450;52.150;4.466;2023-02-18T10:44:55;101852.66;;;10.64;100.00
66273;BME280;58450;52.150;4.466;2023-02-18T10:47:36;101876.22;;;10.71;100.00
66273;BME280;58450;52.150;4.466;2023-02-18T10:50:10;101879.25;;;10.68;100.00
66273;BME280;58450;52.150;4.466;2023-02-18T10:52:48;101859.53;;;10.59;100.00
66273;BME280;58450;52.150;4.466;2023-02-18T10:55:33;101898.28;;;10.40;100.00
66273;BME280;58450;52.150;4.466;2023-02-18T10:58:23;101880.72;;;10.62;100.00
66273;BME280;58450;52.150;4.466;2023-02-18T11:00:53;101875.38;;;10.70;100.00
66273;BME280;58450;52.150;4.466;2023-02-18T11:03:22;101891.97;;;10.57;100.00
66273;BME280;58450;52.150;4.466;2023-02-18T11:05:54;101888.28;;;10.32;100.00
66273;BME280;58450;52.150;4.466;2023-02-18T11:08:25;101893.38;;;10.70;100.00
66273;BME280;58450;52.150;4.466;2023-02-18T11:10:55;101877.03;;;10.63;100.00
66273;BME280;58450;52.150;4.466;2023-02-18T11:13:27;101865.84;;;10.84;100.00
66273;BME280;58450;52.150;4.466;2023-02-18T11:16:00;101881.03;;;11.10;100.00
66273;BME280;58450;52.150;4.466;2023-02-18T11:18:36;101855.31;;;11.16;100.00
66273;BME280;58450;52.150;4.466;2023-02-18T11:21:28;101909.34;;;11.14;100.00
66273;BME280;58450;52.150;4.466;2023-02-18T11:24:05;101915.34;;;10.91;100.00
66273;BME280;58450;52.150;4.466;2023-02-18T11:26:37;101877.66;;;11.08;100.00
66273;BME280;58450;52.150;4.466;2023-02-18T11:29:14;101886.09;;;11.13;100.00
66273;BME280;58450;52.150;4.466;2023-02-18T11:31:49;101906.28;;;11.01;100.00
66273;BME280;58450;52.150;4.466;2023-02-18T11:34:20;101889.09;;;10.93;100.00
66273;BME280;58450;52.150;4.466;2023-02-18T11:36:50;101877.19;;;11.21;100.00
66273;BME280;58450;52.150;4.466;2023-02-18T11:39:20;101877.56;;;11.34;100.00
66273;BME280;58450;52.150;4.466;2023-02-18T11:41:54;101879.75;;;11.39;100.00
66273;BME280;58450;52.150;4.466;2023-02-18T11:44:28;101918.00;;;11.34;100.00
66273;BME280;58450;52.150;4.466;2023-02-18T11:47:01;101866.25;;;11.31;100.00
66273;BME280;58450;52.150;4.466;2023-02-18T11:49:31;101858.88;;;11.58;100.00
66273;BME280;58450;52.150;4.466;2023-02-18T11:52:08;101873.50;;;11.88;100.00
66273;BME280;58450;52.150;4.466;2023-02-18T11:54:58;101918.00;;;11.84;100.00
66273;BME280;58450;52.150;4.466;2023-02-18T11:57:28;101903.03;;;11.81;100.00
66273;BME280;58450;52.150;4.466;2023-02-18T11:59:59;101882.47;;;11.80;100.00
66273;BME280;58450;52.150;4.466;2023-02-18T12:02:31;101926.09;;;11.84;100.00
66273;BME280;58450;52.150;4.466;2023-02-18T12:05:04;101870.31;;;11.85;100.00
66273;BME280;58450;52.150;4.466;2023-02-18T12:07:43;101858.66;;;11.84;100.00
66273;BME280;58450;52.150;4.466;2023-02-18T12:10:22;101827.94;;;12.26;100.00
66273;BME280;58450;52.150;4.466;2023-02-18T12:12:59;101856.63;;;12.11;100.00
66273;BME280;58450;52.150;4.466;2023-02-18T12:15:46;101885.78;;;12.24;100.00
66273;BME280;58450;52.150;4.466;2023-02-18T12:18:32;101861.91;;;11.79;100.00
66273;BME280;58450;52.150;4.466;2023-02-18T12:21:21;101909.91;;;11.92;100.00
66273;BME280;58450;52.150;4.466;2023-02-18T12:24:11;101871.34;;;11.83;100.00
66273;BME280;58450;52.150;4.466;2023-02-18T12:26:57;101856.16;;;11.82;100.00
66273;BME280;58450;52.150;4.466;2023-02-18T12:29:48;101888.03;;;12.04;100.00
66273;BME280;58450;52.150;4.466;2023-02-18T12:32:36;101890.88;;;11.86;100.00
66273;BME280;58450;52.150;4.466;2023-02-18T12:35:35;101849.28;;;11.38;100.00
66273;BME280;58450;52.150;4.466;2023-02-18T12:38:29;101881.94;;;11.77;100.00
66273;BME280;58450;52.150;4.466;2023-02-18T12:41:15;101855.81;;;11.86;100.00
66273;BME280;58450;52.150;4.466;2023-02-18T12:44:03;101877.22;;;12.04;100.00
66273;BME280;58450;52.150;4.466;2023-02-18T12:50:03;101848.50;;;12.27;100.00
66273;BME280;58450;52.150;4.466;2023-02-18T12:53:00;101862.19;;;12.18;100.00
66273;BME280;58450;52.150;4.466;2023-02-18T12:55:50;101867.09;;;11.97;100.00
66273;BME280;58450;52.150;4.466;2023-02-18T12:58:37;101869.94;;;11.96;100.00
66273;BME280;58450;52.150;4.466;2023-02-18T13:01:33;101866.09;;;11.90;100.00
66273;BME280;58450;52.150;4.466;2023-02-18T13:04:17;101880.44;;;11.66;100.00
66273;BME280;58450;52.150;4.466;2023-02-18T13:07:27;101876.00;;;12.23;100.00
66273;BME280;58450;52.150;4.466;2023-02-18T13:10:41;101936.06;;;11.92;100.00
66273;BME280;58450;52.150;4.466;2023-02-18T13:13:19;101896.97;;;11.79;100.00
66273;BME280;58450;52.150;4.466;2023-02-18T13:15:50;101939.44;;;12.02;100.00
66273;BME280;58450;52.150;4.466;2023-02-18T13:18:24;101895.41;;;11.93;100.00